Time,TemperatureF,DewpointF,PressureIn,WindDirection,WindDirectionDegrees,WindSpeedMPH,WindSpeedGustMPH,Humidity,HourlyPrecipIn,Conditions,Clouds,dailyrainin,SoftwareType,DateUTC
2013-07-04 00:00:00,75.5,57.2,18.50,East,100,1.0,5.0,53,0.00,,SKC,0.00,VWS V14.01,2013-07-04 05:00:00,
2013-07-04 00:01:00,75.4,59.1,18.49,ENE,76,1.0,7.0,57,0.00,,SKC,0.00,VWS V14.01,2013-07-04 05:01:00,
2013-07-04 00:08:00,75.5,59.7,18.50,ESE,108,1.0,4.0,58,0.00,,SKC,0.00,VWS V14.01,2013-07-04 05:08:00,
2013-07-04 00:14:00,75.5,59.7,18.50,SE,143,1.0,4.0,58,0.00,,SKC,0.00,VWS V14.01,2013-07-04 05:14:00,
2013-07-04 00:20:00,75.4,59.6,18.50,SE,125,2.0,5.0,58,0.00,,SKC,0.00,VWS V14.01,2013-07-04 05:20:00,
2013-07-04 00:26:00,75.3,60.0,18.50,SE,131,3.0,5.0,59,0.00,,SKC,0.00,VWS V14.01,2013-07-04 05:26:00,
2013-07-04 00:30:00,74.7,58.0,18.50,East,90,1.0,5.0,56,0.00,,SKC,0.00,VWS V14.01,2013-07-04 05:30:00,
2013-07-04 00:31:00,75.1,59.8,18.50,SE,132,1.0,5.0,59,0.00,,SKC,0.00,VWS V14.01,2013-07-04 05:31:00,
2013-07-04 00:38:00,74.8,60.0,18.50,SE,124,2.0,4.0,60,0.00,,SKC,0.00,VWS V14.01,2013-07-04 05:38:00,
2013-07-04 00:44:00,74.4,60.1,18.50,SE,139,2.0,4.0,61,0.00,,SKC,0.00,VWS V14.01,2013-07-04 05:44:00,
2013-07-04 00:50:00,74.1,60.3,18.49,East,86,1.0,6.0,62,0.00,,SKC,0.00,VWS V14.01,2013-07-04 05:50:00,
2013-07-04 00:56:00,74.2,59.9,18.49,ENE,77,0.0,6.0,61,0.00,,SKC,0.00,VWS V14.01,2013-07-04 05:56:00,
2013-07-04 01:00:00,75.4,59.1,18.49,ENE,76,1.0,7.0,57,0.00,,SKC,0.00,VWS V14.01,2013-07-04 06:00:00,
2013-07-04 01:01:00,74.5,60.2,18.49,ESE,119,3.0,7.0,61,0.00,,SKC,0.00,VWS V14.01,2013-07-04 06:01:00,
2013-07-04 01:08:00,74.8,60.0,18.49,ESE,105,2.0,7.0,60,0.00,,SKC,0.00,VWS V14.01,2013-07-04 06:08:00,
2013-07-04 01:14:00,74.7,59.9,18.49,East,98,3.0,8.0,60,0.00,,SKC,0.00,VWS V14.01,2013-07-04 06:14:00,
2013-07-04 01:20:00,74.6,59.8,18.49,SSE,154,3.0,8.0,60,0.00,,SKC,0.00,VWS V14.01,2013-07-04 06:20:00,
2013-07-04 01:26:00,74.5,60.2,18.49,SE,140,2.0,8.0,61,0.00,,SKC,0.00,VWS V14.01,2013-07-04 06:26:00,
2013-07-04 01:30:00,75.1,59.8,18.50,SE,132,1.0,5.0,59,0.00,,SKC,0.00,VWS V14.01,2013-07-04 06:30:00,
2013-07-04 01:32:00,74.5,60.2,18.49,SSE,150,5.0,5.0,61,0.00,,SKC,0.00,VWS V14.01,2013-07-04 06:32:00,
2013-07-04 01:38:00,74.5,59.7,18.49,SE,125,1.0,7.0,60,0.00,,SKC,0.00,VWS V14.01,2013-07-04 06:38:00,
2013-07-04 01:44:00,74.6,59.8,18.49,East,83,2.0,7.0,60,0.00,,SKC,0.00,VWS V14.01,2013-07-04 06:44:00,
2013-07-04 01:50:00,74.7,59.9,18.49,SE,140,2.0,7.0,60,0.00,,SKC,0.00,VWS V14.01,2013-07-04 06:50:00,
2013-07-04 01:56:00,74.7,59.9,18.49,ESE,109,1.0,7.0,60,0.00,,SKC,0.00,VWS V14.01,2013-07-04 06:56:00,
2013-07-04 02:00:00,74.7,60.4,18.49,ESE,113,5.0,8.0,61,0.00,,SKC,0.00,VWS V14.01,2013-07-04 07:00:00,
2013-07-04 02:02:00,74.7,59.9,18.49,East,98,3.0,7.0,60,0.00,,SKC,0.00,VWS V14.01,2013-07-04 07:02:00,
2013-07-04 02:08:00,74.6,59.8,18.49,SSE,167,1.0,7.0,60,0.00,,SKC,0.00,VWS V14.01,2013-07-04 07:08:00,
2013-07-04 02:14:00,74.5,60.2,18.49,SE,135,1.0,7.0,61,0.00,,SKC,0.00,VWS V14.01,2013-07-04 07:14:00,
2013-07-04 02:20:00,74.3,60.0,18.49,SE,132,0.0,7.0,61,0.00,,SKC,0.00,VWS V14.01,2013-07-04 07:20:00,
2013-07-04 02:26:00,74.1,59.8,18.49,SSE,148,1.0,7.0,61,0.00,,SKC,0.00,VWS V14.01,2013-07-04 07:26:00,
2013-07-04 02:30:00,74.5,60.2,18.49,SE,126,3.0,8.0,61,0.00,,SKC,0.00,VWS V14.01,2013-07-04 07:30:00,
2013-07-04 02:33:00,74.0,60.2,18.49,ESE,117,3.0,3.0,62,0.00,,SKC,0.00,VWS V14.01,2013-07-04 07:33:00,
2013-07-04 02:39:00,73.9,60.1,18.49,ESE,117,1.0,3.0,62,0.00,,SKC,0.00,VWS V14.01,2013-07-04 07:39:00,
2013-07-04 02:45:00,73.7,59.9,18.49,SSE,158,1.0,3.0,62,0.00,,SKC,0.00,VWS V14.01,2013-07-04 07:45:00,
2013-07-04 02:51:00,73.5,60.2,18.49,SSE,158,2.0,3.0,63,0.00,,SKC,0.00,VWS V14.01,2013-07-04 07:51:00,
2013-07-04 02:57:00,73.3,60.0,18.49,SSE,158,0.0,3.0,63,0.00,,SKC,0.00,VWS V14.01,2013-07-04 07:57:00,
2013-07-04 03:00:00,74.7,60.4,18.49,ESE,113,5.0,8.0,61,0.00,,SKC,0.00,VWS V14.01,2013-07-04 08:00:00,
2013-07-04 03:03:00,73.1,60.2,18.49,SSE,158,1.0,1.0,64,0.00,,SKC,0.00,VWS V14.01,2013-07-04 08:03:00,
2013-07-04 03:09:00,72.9,60.0,18.49,SSE,158,0.0,3.0,64,0.00,,SKC,0.00,VWS V14.01,2013-07-04 08:09:00,
2013-07-04 03:15:00,72.7,60.3,18.49,SSE,158,1.0,3.0,65,0.00,,SKC,0.00,VWS V14.01,2013-07-04 08:15:00,
2013-07-04 03:21:00,72.6,60.2,18.49,SSE,158,2.0,3.0,65,0.00,,SKC,0.00,VWS V14.01,2013-07-04 08:21:00,
2013-07-04 03:27:00,72.5,60.1,18.49,ESE,107,1.0,3.0,65,0.00,,SKC,0.00,VWS V14.01,2013-07-04 08:27:00,
2013-07-04 03:30:00,74.0,59.7,18.49,SE,146,1.0,7.0,61,0.00,,SKC,0.00,VWS V14.01,2013-07-04 08:30:00,
2013-07-04 03:33:00,72.4,60.4,18.49,SE,126,3.0,4.0,66,0.00,,SKC,0.00,VWS V14.01,2013-07-04 08:33:00,
2013-07-04 03:39:00,72.4,60.4,18.49,SE,126,1.0,4.0,66,0.00,,SKC,0.00,VWS V14.01,2013-07-04 08:39:00,
2013-07-04 03:45:00,72.3,60.3,18.49,ESE,107,1.0,4.0,66,0.00,,SKC,0.00,VWS V14.01,2013-07-04 08:45:00,
2013-07-04 03:51:00,72.2,60.7,18.49,SE,131,1.0,4.0,67,0.00,,SKC,0.00,VWS V14.01,2013-07-04 08:51:00,
2013-07-04 03:57:00,72.2,60.7,18.49,ESE,113,2.0,4.0,67,0.00,,SKC,0.00,VWS V14.01,2013-07-04 08:57:00,
2013-07-04 04:00:00,73.2,59.9,18.49,SSE,158,0.0,3.0,63,0.00,,SKC,0.00,VWS V14.01,2013-07-04 09:00:00,
2013-07-04 04:03:00,72.2,60.7,18.49,South,172,1.0,3.0,67,0.00,,SKC,0.00,VWS V14.01,2013-07-04 09:03:00,
2013-07-04 04:09:00,72.2,60.7,18.49,ENE,77,1.0,3.0,67,0.00,,SKC,0.00,VWS V14.01,2013-07-04 09:09:00,
2013-07-04 04:15:00,72.1,61.0,18.49,SSE,152,0.0,3.0,68,0.00,,SKC,0.00,VWS V14.01,2013-07-04 09:15:00,
2013-07-04 04:21:00,71.9,60.8,18.49,SSE,147,0.0,3.0,68,0.00,,SKC,0.00,VWS V14.01,2013-07-04 09:21:00,
2013-07-04 04:27:00,71.9,60.8,18.49,ESE,116,2.0,3.0,68,0.00,,SKC,0.00,VWS V14.01,2013-07-04 09:27:00,
2013-07-04 04:30:00,72.4,60.4,18.49,ESE,107,1.0,3.0,66,0.00,,SKC,0.00,VWS V14.01,2013-07-04 09:30:00,
2013-07-04 04:33:00,71.7,60.6,18.49,South,169,1.0,3.0,68,0.00,,SKC,0.00,VWS V14.01,2013-07-04 09:33:00,
2013-07-04 04:39:00,71.6,60.5,18.49,ESE,110,3.0,5.0,68,0.00,,SKC,0.00,VWS V14.01,2013-07-04 09:39:00,
2013-07-04 04:45:00,71.5,60.8,18.49,SE,135,3.0,5.0,69,0.00,,SKC,0.00,VWS V14.01,2013-07-04 09:45:00,
2013-07-04 04:51:00,71.5,60.8,18.49,East,97,2.0,5.0,69,0.00,,SKC,0.00,VWS V14.01,2013-07-04 09:51:00,
2013-07-04 04:57:00,71.6,60.9,18.49,SE,142,3.0,5.0,69,0.00,,SKC,0.00,VWS V14.01,2013-07-04 09:57:00,
2013-07-04 05:00:00,72.2,60.7,18.49,SSE,150,3.0,4.0,67,0.00,,SKC,0.00,VWS V14.01,2013-07-04 10:00:00,
2013-07-04 05:03:00,71.7,61.0,18.49,SE,140,3.0,3.0,69,0.00,,SKC,0.00,VWS V14.01,2013-07-04 10:03:00,
2013-07-04 05:09:00,71.7,61.0,18.49,East,85,3.0,5.0,69,0.00,,SKC,0.00,VWS V14.01,2013-07-04 10:09:00,
2013-07-04 05:15:00,71.7,61.4,18.49,SE,146,0.0,5.0,70,0.00,,SKC,0.00,VWS V14.01,2013-07-04 10:15:00,
2013-07-04 05:21:00,71.6,61.3,18.49,SE,140,1.0,5.0,70,0.00,,SKC,0.00,VWS V14.01,2013-07-04 10:21:00,
2013-07-04 05:27:00,71.4,61.5,18.49,SE,128,2.0,5.0,71,0.00,,SKC,0.00,VWS V14.01,2013-07-04 10:27:00,
2013-07-04 05:30:00,71.7,60.6,18.49,East,101,3.0,4.0,68,0.00,,SKC,0.00,VWS V14.01,2013-07-04 10:30:00,
2013-07-04 05:33:00,71.3,61.4,17.63,SE,131,2.0,3.0,71,0.00,,SKC,0.00,VWS V14.01,2013-07-04 10:33:00,
2013-07-04 05:39:00,71.5,61.6,17.63,South,175,0.0,5.0,71,0.00,,SKC,0.00,VWS V14.01,2013-07-04 10:39:00,
2013-07-04 05:45:00,71.7,61.8,17.63,SE,134,1.0,5.0,71,0.00,,SKC,0.00,VWS V14.01,2013-07-04 10:45:00,
2013-07-04 05:51:00,71.7,61.8,17.63,East,91,2.0,5.0,71,0.00,,SKC,0.00,VWS V14.01,2013-07-04 10:51:00,
2013-07-04 05:57:00,71.3,61.4,17.63,ESE,113,4.0,5.0,71,0.00,,SKC,0.00,VWS V14.01,2013-07-04 10:57:00,
2013-07-04 06:00:00,71.7,61.0,18.49,SE,138,2.0,5.0,69,0.00,,SKC,0.00,VWS V14.01,2013-07-04 11:00:00,
2013-07-04 06:03:00,71.1,61.6,17.63,ESE,120,1.0,5.0,72,0.00,,SKC,0.00,VWS V14.01,2013-07-04 11:03:00,
2013-07-04 06:09:00,71.0,61.5,17.63,ESE,109,5.0,5.0,72,0.00,,SKC,0.00,VWS V14.01,2013-07-04 11:09:00,
2013-07-04 06:15:00,70.8,61.3,17.63,SE,132,0.0,5.0,72,0.00,,SKC,0.00,VWS V14.01,2013-07-04 11:15:00,
2013-07-04 06:21:00,70.9,61.8,17.63,ESE,123,3.0,5.0,73,0.00,,SKC,0.00,VWS V14.01,2013-07-04 11:21:00,
2013-07-04 06:27:00,71.3,61.8,17.63,ESE,105,4.0,6.0,72,0.00,,SKC,0.00,VWS V14.01,2013-07-04 11:27:00,
2013-07-04 06:30:00,71.3,61.4,18.49,SE,131,2.0,5.0,71,0.00,,SKC,0.00,VWS V14.01,2013-07-04 11:30:00,
2013-07-04 06:33:00,71.3,61.8,17.63,SSE,149,5.0,6.0,72,0.00,,SKC,0.00,VWS V14.01,2013-07-04 11:33:00,
2013-07-04 06:39:00,71.3,61.8,17.63,SE,131,5.0,6.0,72,0.00,,SKC,0.00,VWS V14.01,2013-07-04 11:39:00,
2013-07-04 06:45:00,71.4,61.9,17.63,East,81,3.0,8.0,72,0.00,,SKC,0.00,VWS V14.01,2013-07-04 11:45:00,
2013-07-04 06:51:00,71.4,61.9,18.49,SE,132,0.0,8.0,72,0.00,,SKC,0.00,VWS V14.01,2013-07-04 11:51:00,
2013-07-04 06:57:00,71.5,62.0,18.49,SE,138,1.0,8.0,72,0.00,,SKC,0.00,VWS V14.01,2013-07-04 11:57:00,
2013-07-04 07:00:00,71.2,61.7,17.63,SE,132,1.0,5.0,72,0.00,,SKC,0.00,VWS V14.01,2013-07-04 12:00:00,
2013-07-04 07:03:00,71.5,62.4,18.49,ESE,111,1.0,4.0,73,0.00,,SKC,0.00,VWS V14.01,2013-07-04 12:03:00,
2013-07-04 07:09:00,71.6,62.5,18.49,ESE,119,1.0,4.0,73,0.00,,SKC,0.00,VWS V14.01,2013-07-04 12:09:00,
2013-07-04 07:15:00,71.9,62.8,18.49,SE,140,3.0,7.0,73,0.00,,SKC,0.00,VWS V14.01,2013-07-04 12:15:00,
2013-07-04 07:21:00,72.3,62.8,18.49,SSE,157,0.0,7.0,72,0.00,,SKC,0.00,VWS V14.01,2013-07-04 12:21:00,
2013-07-04 07:27:00,72.6,62.7,18.49,East,93,8.0,8.0,71,0.00,,SKC,0.00,VWS V14.01,2013-07-04 12:27:00,
2013-07-04 07:30:00,71.3,61.8,17.63,SE,139,3.0,6.0,72,0.00,,SKC,0.00,VWS V14.01,2013-07-04 12:30:00,
2013-07-04 07:33:00,72.7,63.2,18.49,SE,134,4.0,5.0,72,0.00,,SKC,0.00,VWS V14.01,2013-07-04 12:33:00,
2013-07-04 07:39:00,72.9,63.3,18.49,SE,126,0.0,7.0,72,0.00,,SKC,0.00,VWS V14.01,2013-07-04 12:39:00,
2013-07-04 07:45:00,73.2,63.6,18.49,SE,144,1.0,7.0,72,0.00,,SKC,0.00,VWS V14.01,2013-07-04 12:45:00,
2013-07-04 07:51:00,73.5,63.5,18.49,SSE,149,4.0,7.0,71,0.00,,SKC,0.00,VWS V14.01,2013-07-04 12:51:00,
2013-07-04 07:57:00,73.8,63.8,18.49,SSE,158,3.0,7.0,71,0.00,,SKC,0.00,VWS V14.01,2013-07-04 12:57:00,
2013-07-04 08:00:00,71.5,62.4,18.49,ESE,116,3.0,8.0,73,0.00,,SKC,0.00,VWS V14.01,2013-07-04 13:00:00,
2013-07-04 08:03:00,74.2,63.8,18.49,ESE,109,3.0,5.0,70,0.00,,SKC,0.00,VWS V14.01,2013-07-04 13:03:00,
2013-07-04 08:09:00,74.6,63.8,18.49,South,187,3.0,8.0,69,0.00,,SKC,0.00,VWS V14.01,2013-07-04 13:09:00,
2013-07-04 08:15:00,75.0,64.2,18.49,South,173,3.0,8.0,69,0.00,,SKC,0.00,VWS V14.01,2013-07-04 13:15:00,
2013-07-04 08:21:00,75.4,64.1,18.49,SSE,150,3.0,8.0,68,0.00,,SKC,0.00,VWS V14.01,2013-07-04 13:21:00,
2013-07-04 08:27:00,75.8,64.1,18.49,East,98,7.0,8.0,67,0.00,,SKC,0.00,VWS V14.01,2013-07-04 13:27:00,
2013-07-04 08:30:00,72.6,63.1,18.49,ESE,113,2.0,8.0,72,0.00,,SKC,0.00,VWS V14.01,2013-07-04 13:30:00,
2013-07-04 08:33:00,76.2,64.4,18.49,South,188,1.0,9.0,67,0.00,,SKC,0.00,VWS V14.01,2013-07-04 13:33:00,
2013-07-04 08:39:00,76.4,64.2,18.49,South,180,1.0,9.0,66,0.00,,SKC,0.00,VWS V14.01,2013-07-04 13:39:00,
2013-07-04 08:45:00,76.8,64.6,18.49,South,182,5.0,9.0,66,0.00,,SKC,0.00,VWS V14.01,2013-07-04 13:45:00,
2013-07-04 08:51:00,77.2,65.0,16.58,ESE,117,2.0,9.0,66,0.00,,SKC,0.00,VWS V14.01,2013-07-04 13:51:00,
2013-07-04 08:57:00,77.6,64.9,16.58,SSE,153,4.0,9.0,65,0.00,,SKC,0.00,VWS V14.01,2013-07-04 13:57:00,
2013-07-04 09:00:00,74.1,63.7,18.49,SE,132,3.0,7.0,70,0.00,,SKC,0.00,VWS V14.01,2013-07-04 14:00:00,
2013-07-04 09:03:00,77.8,65.1,18.49,South,175,4.0,7.0,65,0.00,,SKC,0.00,VWS V14.01,2013-07-04 14:03:00,
2013-07-04 09:09:00,78.1,64.9,18.49,SSE,163,5.0,9.0,64,0.00,,SKC,0.00,VWS V14.01,2013-07-04 14:09:00,
2013-07-04 09:15:00,78.5,65.3,18.49,SSE,150,5.0,9.0,64,0.00,,SKC,0.00,VWS V14.01,2013-07-04 14:15:00,
2013-07-04 09:21:00,78.8,65.2,18.49,SE,144,2.0,9.0,63,0.00,,SKC,0.00,VWS V14.01,2013-07-04 14:21:00,
2013-07-04 09:27:00,79.0,65.3,18.49,SSE,165,5.0,9.0,63,0.00,,SKC,0.00,VWS V14.01,2013-07-04 14:27:00,
2013-07-04 09:30:00,76.0,64.3,18.49,ESE,117,5.0,8.0,67,0.00,,SKC,0.00,VWS V14.01,2013-07-04 14:30:00,
2013-07-04 09:33:00,79.5,65.8,18.49,South,179,6.0,8.0,63,0.00,,SKC,0.00,VWS V14.01,2013-07-04 14:33:00,
2013-07-04 09:39:00,79.7,66.0,18.49,SSE,168,1.0,8.0,63,0.00,,SKC,0.00,VWS V14.01,2013-07-04 14:39:00,
2013-07-04 09:45:00,80.0,66.3,18.49,SSE,161,2.0,8.0,63,0.00,,SKC,0.00,VWS V14.01,2013-07-04 14:45:00,
2013-07-04 09:51:00,80.3,66.6,18.49,SE,138,1.0,8.0,63,0.00,,SKC,0.00,VWS V14.01,2013-07-04 14:51:00,
2013-07-04 09:58:00,80.6,66.4,18.49,South,175,1.0,8.0,62,0.00,,SKC,0.00,VWS V14.01,2013-07-04 14:58:00,
2013-07-04 10:00:00,77.7,65.0,18.49,ESE,121,4.0,9.0,65,0.00,,SKC,0.00,VWS V14.01,2013-07-04 15:00:00,
2013-07-04 10:04:00,80.9,65.7,18.49,South,190,2.0,5.0,60,0.00,,SKC,0.00,VWS V14.01,2013-07-04 15:04:00,
2013-07-04 10:10:00,81.3,65.6,18.49,SSE,159,1.0,6.0,59,0.00,,SKC,0.00,VWS V14.01,2013-07-04 15:10:00,
2013-07-04 10:16:00,81.6,65.9,18.49,West,271,3.0,6.0,59,0.00,,SKC,0.00,VWS V14.01,2013-07-04 15:16:00,
2013-07-04 10:22:00,82.2,66.0,18.49,SSW,209,4.0,6.0,58,0.00,,SKC,0.00,VWS V14.01,2013-07-04 15:22:00,
2013-07-04 10:28:00,82.4,66.2,18.49,South,188,1.0,7.0,58,0.00,,SKC,0.00,VWS V14.01,2013-07-04 15:28:00,
2013-07-04 10:30:00,79.3,66.1,18.49,SE,140,5.0,9.0,64,0.00,,SKC,0.00,VWS V14.01,2013-07-04 15:30:00,
2013-07-04 10:34:00,82.7,66.4,18.49,West,277,2.0,6.0,58,0.00,,SKC,0.00,VWS V14.01,2013-07-04 15:34:00,
2013-07-04 10:40:00,82.9,66.1,18.49,SW,215,4.0,7.0,57,0.00,,SKC,0.00,VWS V14.01,2013-07-04 15:40:00,
2013-07-04 10:46:00,82.7,66.9,18.49,SSW,192,0.0,7.0,59,0.00,,SKC,0.00,VWS V14.01,2013-07-04 15:46:00,
2013-07-04 10:52:00,83.1,66.8,18.49,SSW,213,3.0,8.0,58,0.00,,SKC,0.00,VWS V14.01,2013-07-04 15:52:00,
2013-07-04 10:58:00,83.2,67.9,18.49,South,183,2.0,8.0,60,0.00,,SKC,0.00,VWS V14.01,2013-07-04 15:58:00,
2013-07-04 11:00:00,80.8,66.1,18.49,SSE,155,5.0,8.0,61,0.00,,SKC,0.00,VWS V14.01,2013-07-04 16:00:00,
2013-07-04 11:04:00,83.1,66.8,18.49,SW,224,2.0,7.0,58,0.00,,SKC,0.00,VWS V14.01,2013-07-04 16:04:00,
2013-07-04 11:10:00,83.4,67.6,18.49,WSW,242,4.0,7.0,59,0.00,,SKC,0.00,VWS V14.01,2013-07-04 16:10:00,
2013-07-04 11:16:00,83.7,66.3,18.49,SW,235,6.0,9.0,56,0.00,,SKC,0.00,VWS V14.01,2013-07-04 16:16:00,
2013-07-04 11:22:00,84.0,66.1,18.49,SW,232,3.0,9.0,55,0.00,,SKC,0.00,VWS V14.01,2013-07-04 16:22:00,
2013-07-04 11:28:00,84.5,65.5,18.49,SW,214,6.0,9.0,53,0.00,,SKC,0.00,VWS V14.01,2013-07-04 16:28:00,
2013-07-04 11:30:00,82.6,65.8,18.49,WSW,240,4.0,7.0,57,0.00,,SKC,0.00,VWS V14.01,2013-07-04 16:30:00,
2013-07-04 11:34:00,84.7,65.7,18.49,WSW,248,3.0,7.0,53,0.00,,SKC,0.00,VWS V14.01,2013-07-04 16:34:00,
2013-07-04 11:40:00,84.7,64.6,18.49,SW,228,5.0,10.0,51,0.00,,SKC,0.00,VWS V14.01,2013-07-04 16:40:00,
2013-07-04 11:46:00,84.8,64.7,18.49,SW,230,3.0,10.0,51,0.00,,SKC,0.00,VWS V14.01,2013-07-04 16:46:00,
2013-07-04 11:52:00,85.3,65.1,18.49,SSW,201,9.0,10.0,51,0.00,,SKC,0.00,VWS V14.01,2013-07-04 16:52:00,
2013-07-04 11:58:00,85.6,64.8,18.49,SW,235,2.0,11.0,50,0.00,,SKC,0.00,VWS V14.01,2013-07-04 16:58:00,
2013-07-04 12:00:00,83.2,66.9,18.49,West,276,3.0,8.0,58,0.00,,SKC,0.00,VWS V14.01,2013-07-04 17:00:00,
2013-07-04 12:04:00,85.8,65.6,18.49,SW,236,7.0,7.0,51,0.00,,SKC,0.00,VWS V14.01,2013-07-04 17:04:00,
2013-07-04 12:10:00,86.2,65.4,18.49,West,269,7.0,10.0,50,0.00,,SKC,0.00,VWS V14.01,2013-07-04 17:10:00,
2013-07-04 12:16:00,86.3,66.1,18.49,SW,225,5.0,10.0,51,0.00,,SKC,0.00,VWS V14.01,2013-07-04 17:16:00,
2013-07-04 12:22:00,86.7,65.9,18.49,WNW,283,4.0,10.0,50,0.00,,SKC,0.00,VWS V14.01,2013-07-04 17:22:00,
2013-07-04 12:28:00,87.0,65.0,18.49,South,182,4.0,10.0,48,0.00,,SKC,0.00,VWS V14.01,2013-07-04 17:28:00,
2013-07-04 12:30:00,84.7,65.7,18.49,SSW,196,7.0,9.0,53,0.00,,SKC,0.00,VWS V14.01,2013-07-04 17:30:00,
2013-07-04 12:34:00,87.2,63.9,18.49,West,266,5.0,9.0,46,0.00,,SKC,0.00,VWS V14.01,2013-07-04 17:34:00,
2013-07-04 12:40:00,87.1,65.6,18.49,SSW,207,3.0,9.0,49,0.00,,SKC,0.00,VWS V14.01,2013-07-04 17:40:00,
2013-07-04 12:46:00,87.4,65.3,18.49,West,264,8.0,10.0,48,0.00,,SKC,0.00,VWS V14.01,2013-07-04 17:46:00,
2013-07-04 12:52:00,87.3,64.0,18.49,West,276,8.0,10.0,46,0.00,,SKC,0.00,VWS V14.01,2013-07-04 17:52:00,
2013-07-04 12:58:00,87.5,64.8,18.49,SSW,193,4.0,10.0,47,0.00,,SKC,0.00,VWS V14.01,2013-07-04 17:58:00,
2013-07-04 13:00:00,85.6,66.0,18.49,WSW,248,4.0,11.0,52,0.00,,SKC,0.00,VWS V14.01,2013-07-04 18:00:00,
2013-07-04 13:04:00,87.8,64.5,18.49,South,181,2.0,10.0,46,0.00,,SKC,0.00,VWS V14.01,2013-07-04 18:04:00,
2013-07-04 13:10:00,88.6,65.2,18.49,SSW,205,2.0,10.0,46,0.00,,SKC,0.00,VWS V14.01,2013-07-04 18:10:00,
2013-07-04 13:16:00,88.8,62.8,18.49,WSW,258,5.0,10.0,42,0.00,,SKC,0.00,VWS V14.01,2013-07-04 18:16:00,
2013-07-04 13:22:00,89.1,63.0,18.49,West,273,8.0,10.0,42,0.00,,SKC,0.00,VWS V14.01,2013-07-04 18:22:00,
2013-07-04 13:28:00,88.9,64.2,18.49,WSW,240,5.0,10.0,44,0.00,,SKC,0.00,VWS V14.01,2013-07-04 18:28:00,
2013-07-04 13:30:00,87.2,65.7,18.49,SSW,204,7.0,10.0,49,0.00,,SKC,0.00,VWS V14.01,2013-07-04 18:30:00,
2013-07-04 13:34:00,89.4,64.0,18.49,West,259,3.0,7.0,43,0.00,,SKC,0.00,VWS V14.01,2013-07-04 18:34:00,
2013-07-04 13:40:00,89.6,63.5,18.49,West,259,4.0,8.0,42,0.00,,SKC,0.00,VWS V14.01,2013-07-04 18:40:00,
2013-07-04 13:46:00,89.7,63.6,18.49,SSW,213,2.0,8.0,42,0.00,,SKC,0.00,VWS V14.01,2013-07-04 18:46:00,
2013-07-04 13:52:00,89.9,61.7,18.49,WNW,292,3.0,8.0,39,0.00,,SKC,0.00,VWS V14.01,2013-07-04 18:52:00,
2013-07-04 13:58:00,90.5,62.2,18.49,NNW,329,2.0,9.0,39,0.00,,SKC,0.00,VWS V14.01,2013-07-04 18:58:00,
2013-07-04 14:00:00,90.7,61.6,18.49,West,273,6.0,9.0,38,0.00,,SKC,0.00,VWS V14.01,2013-07-04 19:00:00,
2013-07-04 14:04:00,90.7,61.6,18.49,West,259,7.0,8.0,38,0.00,,SKC,0.00,VWS V14.01,2013-07-04 19:04:00,
2013-07-04 14:10:00,90.2,63.3,18.49,WSW,251,4.0,8.0,41,0.00,,SKC,0.00,VWS V14.01,2013-07-04 19:10:00,
2013-07-04 14:16:00,90.9,61.8,18.49,West,273,4.0,8.0,38,0.00,,SKC,0.00,VWS V14.01,2013-07-04 19:16:00,
2013-07-04 14:22:00,91.1,62.7,18.49,SW,236,1.0,8.0,39,0.00,,SKC,0.00,VWS V14.01,2013-07-04 19:22:00,
2013-07-04 14:28:00,91.2,62.1,18.49,SW,217,1.0,8.0,38,0.00,,SKC,0.00,VWS V14.01,2013-07-04 19:28:00,
2013-07-04 14:30:00,89.3,64.6,18.49,West,275,4.0,10.0,44,0.00,,SKC,0.00,VWS V14.01,2013-07-04 19:30:00,
2013-07-04 14:34:00,91.8,62.6,18.49,WSW,255,2.0,4.0,38,0.00,,SKC,0.00,VWS V14.01,2013-07-04 19:34:00,
2013-07-04 14:40:00,91.7,61.8,18.49,WSW,243,3.0,8.0,37,0.00,,SKC,0.00,VWS V14.01,2013-07-04 19:40:00,
2013-07-04 14:46:00,91.0,61.1,18.49,West,267,5.0,8.0,37,0.00,,SKC,0.00,VWS V14.01,2013-07-04 19:46:00,
2013-07-04 14:52:00,91.1,62.0,18.49,West,264,3.0,8.0,38,0.00,,SKC,0.00,VWS V14.01,2013-07-04 19:52:00,
2013-07-04 14:58:00,91.3,61.4,18.49,SSW,202,5.0,8.0,37,0.00,,SKC,0.00,VWS V14.01,2013-07-04 19:58:00,
2013-07-04 15:00:00,90.7,61.6,18.49,West,273,6.0,9.0,38,0.00,,SKC,0.00,VWS V14.01,2013-07-04 20:00:00,
2013-07-04 15:04:00,91.4,59.9,18.49,West,261,2.0,8.0,35,0.00,,SKC,0.00,VWS V14.01,2013-07-04 20:04:00,
2013-07-04 15:10:00,91.7,61.0,18.49,West,261,4.0,8.0,36,0.00,,SKC,0.00,VWS V14.01,2013-07-04 20:10:00,
2013-07-04 15:16:00,91.9,61.2,18.49,WSW,246,0.0,8.0,36,0.00,,SKC,0.00,VWS V14.01,2013-07-04 20:16:00,
2013-07-04 15:22:00,92.3,62.3,18.49,SSW,212,2.0,8.0,37,0.00,,SKC,0.00,VWS V14.01,2013-07-04 20:22:00,
2013-07-04 15:28:00,92.7,61.1,18.49,West,274,5.0,8.0,35,0.00,,SKC,0.00,VWS V14.01,2013-07-04 20:28:00,
2013-07-04 15:30:00,91.4,62.2,18.49,SW,217,2.0,8.0,38,0.00,,SKC,0.00,VWS V14.01,2013-07-04 20:30:00,
2013-07-04 15:34:00,92.9,60.4,18.49,SSW,198,3.0,5.0,34,0.00,,SKC,0.00,VWS V14.01,2013-07-04 20:34:00,
2013-07-04 15:40:00,93.3,60.8,18.49,SW,230,5.0,6.0,34,0.00,,SKC,0.00,VWS V14.01,2013-07-04 20:40:00,
2013-07-04 15:46:00,93.2,61.5,18.49,WSW,246,3.0,6.0,35,0.00,,SKC,0.00,VWS V14.01,2013-07-04 20:46:00,
2013-07-04 15:52:00,93.1,61.4,18.49,SSW,207,1.0,6.0,35,0.00,,SKC,0.00,VWS V14.01,2013-07-04 20:52:00,
2013-07-04 15:58:00,93.5,61.0,18.49,West,259,3.0,7.0,34,0.00,,SKC,0.00,VWS V14.01,2013-07-04 20:58:00,
2013-07-04 16:00:00,91.3,60.6,18.49,SSW,212,3.0,8.0,36,0.00,,SKC,0.00,VWS V14.01,2013-07-04 21:00:00,
2013-07-04 16:04:00,93.5,61.0,18.49,West,267,2.0,5.0,34,0.00,,SKC,0.00,VWS V14.01,2013-07-04 21:04:00,
2013-07-04 16:10:00,93.1,59.8,18.49,SW,231,2.0,7.0,33,0.00,,SKC,0.00,VWS V14.01,2013-07-04 21:10:00,
2013-07-04 16:16:00,93.0,60.5,18.49,West,275,3.0,7.0,34,0.00,,SKC,0.00,VWS V14.01,2013-07-04 21:16:00,
2013-07-04 16:22:00,93.7,61.1,18.49,West,265,4.0,7.0,34,0.00,,SKC,0.00,VWS V14.01,2013-07-04 21:22:00,
2013-07-04 16:29:00,93.5,60.1,18.49,WSW,244,5.0,7.0,33,0.00,,SKC,0.00,VWS V14.01,2013-07-04 21:29:00,
2013-07-04 16:30:00,92.7,61.9,18.49,West,259,1.0,8.0,36,0.00,,SKC,0.00,VWS V14.01,2013-07-04 21:30:00,
2013-07-04 16:35:00,93.7,61.9,18.49,West,278,2.0,4.0,35,0.00,,SKC,0.00,VWS V14.01,2013-07-04 21:35:00,
2013-07-04 16:41:00,93.2,59.8,18.49,South,181,0.0,4.0,33,0.00,,SKC,0.00,VWS V14.01,2013-07-04 21:41:00,
2013-07-04 16:47:00,93.1,60.6,18.49,SSE,161,0.0,4.0,34,0.00,,SKC,0.00,VWS V14.01,2013-07-04 21:47:00,
2013-07-04 16:53:00,94.0,60.5,18.49,West,266,4.0,4.0,33,0.00,,SKC,0.00,VWS V14.01,2013-07-04 21:53:00,
2013-07-04 16:59:00,94.2,60.7,18.49,West,259,2.0,4.0,33,0.00,,SKC,0.00,VWS V14.01,2013-07-04 21:59:00,
2013-07-04 17:00:00,93.5,61.0,18.49,SW,236,3.0,7.0,34,0.00,,SKC,0.00,VWS V14.01,2013-07-04 22:00:00,
2013-07-04 17:05:00,94.4,60.9,18.49,West,275,2.0,2.0,33,0.00,,SKC,0.00,VWS V14.01,2013-07-04 22:05:00,
2013-07-04 17:11:00,94.7,60.3,18.49,West,263,3.0,4.0,32,0.00,,SKC,0.00,VWS V14.01,2013-07-04 22:11:00,
2013-07-04 17:17:00,93.9,60.5,18.49,SW,216,1.0,5.0,33,0.00,,SKC,0.00,VWS V14.01,2013-07-04 22:17:00,
2013-07-04 17:23:00,93.1,60.6,18.49,SSE,155,3.0,5.0,34,0.00,,SKC,0.00,VWS V14.01,2013-07-04 22:23:00,
2013-07-04 17:29:00,93.3,61.6,18.49,ENE,72,2.0,5.0,35,0.00,,SKC,0.00,VWS V14.01,2013-07-04 22:29:00,
2013-07-04 17:30:00,93.6,61.0,18.49,West,277,2.0,7.0,34,0.00,,SKC,0.00,VWS V14.01,2013-07-04 22:30:00,
2013-07-04 17:35:00,93.8,61.2,18.49,NE,51,1.0,4.0,34,0.00,,SKC,0.00,VWS V14.01,2013-07-04 22:35:00,
2013-07-04 17:41:00,93.5,64.8,18.49,East,87,17.0,17.0,39,0.00,,SKC,0.00,VWS V14.01,2013-07-04 22:41:00,
2013-07-04 17:47:00,89.6,64.2,18.49,ESE,120,7.0,17.0,43,0.00,,SKC,0.00,VWS V14.01,2013-07-04 22:47:00,
2013-07-04 17:53:00,87.9,64.6,18.49,SE,144,5.0,17.0,46,0.00,,SKC,0.00,VWS V14.01,2013-07-04 22:53:00,
2013-07-04 17:59:00,86.9,64.3,18.49,East,92,9.0,17.0,47,0.00,,SKC,0.00,VWS V14.01,2013-07-04 22:59:00,
2013-07-04 18:00:00,94.2,59.8,18.49,West,275,0.0,4.0,32,0.00,,SKC,0.00,VWS V14.01,2013-07-04 23:00:00,
2013-07-04 18:05:00,86.5,64.5,18.49,East,80,7.0,12.0,48,0.00,,SKC,0.00,VWS V14.01,2013-07-04 23:05:00,
2013-07-04 18:11:00,86.4,65.0,18.49,SSE,159,2.0,12.0,49,0.00,,SKC,0.00,VWS V14.01,2013-07-04 23:11:00,
2013-07-04 18:17:00,86.4,65.0,18.49,SE,140,8.0,14.0,49,0.00,,SKC,0.00,VWS V14.01,2013-07-04 23:17:00,
2013-07-04 18:23:00,86.1,64.7,18.49,East,101,5.0,14.0,49,0.00,,SKC,0.00,VWS V14.01,2013-07-04 23:23:00,
2013-07-04 18:29:00,86.1,64.7,18.49,SE,132,7.0,14.0,49,0.00,,SKC,0.00,VWS V14.01,2013-07-04 23:29:00,
2013-07-04 18:30:00,93.5,62.6,18.49,East,84,2.0,7.0,36,0.00,,SKC,0.00,VWS V14.01,2013-07-04 23:30:00,
2013-07-04 18:35:00,86.1,64.7,18.49,ENE,78,5.0,8.0,49,0.00,,SKC,0.00,VWS V14.01,2013-07-04 23:35:00,
2013-07-04 18:41:00,85.9,64.5,18.49,ESE,103,1.0,11.0,49,0.00,,SKC,0.00,VWS V14.01,2013-07-04 23:41:00,
2013-07-04 18:47:00,85.9,64.5,18.49,SE,138,12.0,12.0,49,0.00,,SKC,0.00,VWS V14.01,2013-07-04 23:47:00,
2013-07-04 18:53:00,85.7,63.8,18.49,East,89,7.0,14.0,48,0.00,,SKC,0.00,VWS V14.01,2013-07-04 23:53:00,
2013-07-04 18:59:00,85.6,63.7,18.49,SE,142,5.0,14.0,48,0.00,,SKC,0.00,VWS V14.01,2013-07-04 23:59:00,
2013-07-04 19:00:00,86.7,64.1,18.49,ESE,107,9.0,17.0,47,0.00,,SKC,0.00,VWS V14.01,2013-07-05 00:00:00,
2013-07-04 19:05:00,85.6,63.7,18.49,ESE,102,5.0,8.0,48,0.00,,SKC,0.00,VWS V14.01,2013-07-05 00:05:00,
2013-07-04 19:11:00,85.5,64.2,18.49,SSE,153,8.0,9.0,49,0.00,,SKC,0.00,VWS V14.01,2013-07-05 00:11:00,
2013-07-04 19:17:00,85.4,62.9,18.49,SSE,165,2.0,10.0,47,0.00,,SKC,0.00,VWS V14.01,2013-07-05 00:17:00,
2013-07-04 19:23:00,85.3,63.4,18.49,ENE,73,7.0,12.0,48,0.00,,SKC,0.00,VWS V14.01,2013-07-05 00:23:00,
2013-07-04 19:29:00,85.1,63.8,18.49,SE,138,5.0,12.0,49,0.00,,SKC,0.00,VWS V14.01,2013-07-05 00:29:00,
2013-07-04 19:30:00,86.1,64.7,18.49,SE,138,3.0,14.0,49,0.00,,SKC,0.00,VWS V14.01,2013-07-05 00:30:00,
2013-07-04 19:35:00,84.9,64.2,18.49,East,82,2.0,9.0,50,0.00,,SKC,0.00,VWS V14.01,2013-07-05 00:35:00,
2013-07-04 19:41:00,84.7,64.0,18.49,ESE,123,0.0,9.0,50,0.00,,SKC,0.00,VWS V14.01,2013-07-05 00:41:00,
2013-07-04 19:47:00,84.5,64.4,18.49,SE,124,1.0,9.0,51,0.00,,SKC,0.00,VWS V14.01,2013-07-05 00:47:00,
2013-07-04 19:53:00,84.3,64.2,18.49,ENE,69,3.0,9.0,51,0.00,,SKC,0.00,VWS V14.01,2013-07-05 00:53:00,
2013-07-04 19:59:00,84.0,63.9,18.49,East,99,1.0,9.0,51,0.00,,SKC,0.00,VWS V14.01,2013-07-05 00:59:00,
2013-07-04 20:00:00,85.6,63.7,18.49,SE,138,2.0,14.0,48,0.00,,SKC,0.00,VWS V14.01,2013-07-05 01:00:00,
2013-07-04 20:05:00,83.8,63.8,18.49,SE,142,2.0,6.0,51,0.00,,SKC,0.00,VWS V14.01,2013-07-05 01:05:00,
2013-07-04 20:11:00,83.5,63.5,18.49,East,94,3.0,6.0,51,0.00,,SKC,0.00,VWS V14.01,2013-07-05 01:11:00,
2013-07-04 20:17:00,83.2,63.8,18.49,ESE,122,2.0,6.0,52,0.00,,SKC,0.00,VWS V14.01,2013-07-05 01:17:00,
2013-07-04 20:23:00,82.9,63.5,18.49,ESE,119,3.0,6.0,52,0.00,,SKC,0.00,VWS V14.01,2013-07-05 01:23:00,
2013-07-04 20:29:00,82.6,63.8,18.49,SE,138,5.0,8.0,53,0.00,,SKC,0.00,VWS V14.01,2013-07-05 01:29:00,
2013-07-04 20:30:00,85.1,63.8,18.49,NE,40,4.0,12.0,49,0.00,,SKC,0.00,VWS V14.01,2013-07-05 01:30:00,
2013-07-04 20:35:00,82.5,63.7,18.49,East,101,6.0,7.0,53,0.00,,SKC,0.00,VWS V14.01,2013-07-05 01:35:00,
2013-07-04 20:41:00,82.3,63.5,18.49,East,86,3.0,7.0,53,0.00,,SKC,0.00,VWS V14.01,2013-07-05 01:41:00,
2013-07-04 20:47:00,82.0,63.7,18.49,ESE,111,4.0,7.0,54,0.00,,SKC,0.00,VWS V14.01,2013-07-05 01:47:00,
2013-07-04 20:53:00,81.6,63.4,18.49,ESE,120,2.0,8.0,54,0.00,,SKC,0.00,VWS V14.01,2013-07-05 01:53:00,
2013-07-04 20:59:00,81.4,63.2,18.49,ESE,119,7.0,8.0,54,0.00,,SKC,0.00,VWS V14.01,2013-07-05 01:59:00,
2013-07-04 21:00:00,83.9,63.8,18.49,ESE,113,3.0,9.0,51,0.00,,SKC,0.00,VWS V14.01,2013-07-05 02:00:00,
2013-07-04 21:05:00,81.2,63.5,18.49,SSE,152,2.0,6.0,55,0.00,,SKC,0.00,VWS V14.01,2013-07-05 02:05:00,
2013-07-04 21:11:00,80.9,63.2,18.49,ESE,111,3.0,8.0,55,0.00,,SKC,0.00,VWS V14.01,2013-07-05 02:11:00,
2013-07-04 21:17:00,80.6,63.5,18.49,ESE,116,2.0,8.0,56,0.00,,SKC,0.00,VWS V14.01,2013-07-05 02:17:00,
2013-07-04 21:23:00,80.4,63.8,18.49,SE,132,5.0,8.0,57,0.00,,SKC,0.00,VWS V14.01,2013-07-05 02:23:00,
2013-07-04 21:29:00,80.2,63.6,18.49,SE,126,3.0,8.0,57,0.00,,SKC,0.00,VWS V14.01,2013-07-05 02:29:00,
2013-07-04 21:30:00,82.6,63.8,18.49,ESE,121,7.0,10.0,53,0.00,,SKC,0.00,VWS V14.01,2013-07-05 02:30:00,
2013-07-04 21:35:00,80.0,63.4,18.49,SSE,149,2.0,7.0,57,0.00,,SKC,0.00,VWS V14.01,2013-07-05 02:35:00,
2013-07-04 21:41:00,79.8,63.7,18.49,East,82,6.0,7.0,58,0.00,,SKC,0.00,VWS V14.01,2013-07-05 02:41:00,
2013-07-04 21:47:00,79.7,63.6,18.49,SE,125,3.0,7.0,58,0.00,,SKC,0.00,VWS V14.01,2013-07-05 02:47:00,
2013-07-04 21:53:00,79.5,63.4,18.49,ENE,76,2.0,8.0,58,0.00,,SKC,0.00,VWS V14.01,2013-07-05 02:53:00,
2013-07-04 21:59:00,79.4,63.8,18.49,ESE,104,1.0,8.0,59,0.00,,SKC,0.00,VWS V14.01,2013-07-05 02:59:00,
2013-07-04 22:00:00,81.3,63.1,18.49,SE,126,0.0,8.0,54,0.00,,SKC,0.00,VWS V14.01,2013-07-05 03:00:00,
2013-07-04 22:05:00,79.2,63.7,18.49,ESE,115,3.0,4.0,59,0.00,,SKC,0.00,VWS V14.01,2013-07-05 03:05:00,
2013-07-04 22:11:00,79.1,64.0,18.49,SE,129,2.0,5.0,60,0.00,,SKC,0.00,VWS V14.01,2013-07-05 03:11:00,
2013-07-04 22:17:00,79.0,63.9,18.49,East,82,1.0,5.0,60,0.00,,SKC,0.00,VWS V14.01,2013-07-05 03:17:00,
2013-07-04 22:23:00,78.9,63.8,18.49,SE,134,4.0,5.0,60,0.00,,SKC,0.00,VWS V14.01,2013-07-05 03:23:00,
2013-07-04 22:29:00,78.7,64.1,18.49,ESE,119,2.0,5.0,61,0.00,,SKC,0.00,VWS V14.01,2013-07-05 03:29:00,
2013-07-04 22:30:00,80.1,63.5,18.49,SE,132,0.0,8.0,57,0.00,,SKC,0.00,VWS V14.01,2013-07-05 03:30:00,
2013-07-04 22:35:00,78.5,64.0,18.49,SE,130,1.0,5.0,61,0.00,,SKC,0.00,VWS V14.01,2013-07-05 03:35:00,
2013-07-04 22:41:00,78.4,64.3,18.49,South,178,3.0,5.0,62,0.00,,SKC,0.00,VWS V14.01,2013-07-05 03:41:00,
2013-07-04 22:47:00,78.3,64.2,18.49,SE,128,1.0,5.0,62,0.00,,SKC,0.00,VWS V14.01,2013-07-05 03:47:00,
2013-07-04 22:53:00,78.2,64.1,18.49,SE,133,2.0,5.0,62,0.00,,SKC,0.00,VWS V14.01,2013-07-05 03:53:00,
2013-07-04 22:59:00,78.0,64.4,18.49,ESE,116,1.0,5.0,63,0.00,,SKC,0.00,VWS V14.01,2013-07-05 03:59:00,
2013-07-04 23:00:00,79.3,63.7,18.49,ESE,105,2.0,8.0,59,0.00,,SKC,0.00,VWS V14.01,2013-07-05 04:00:00,
2013-07-04 23:01:00,77.9,64.3,18.49,SE,128,2.0,5.0,63,0.00,,SKC,0.00,VWS V14.01,2013-07-05 04:01:00,
2013-07-04 23:05:00,77.7,64.6,18.49,ESE,111,0.0,3.0,64,0.00,,SKC,0.00,VWS V14.01,2013-07-05 04:05:00,
2013-07-04 23:08:00,77.5,64.4,18.49,ESE,114,3.0,4.0,64,0.00,,SKC,0.00,VWS V14.01,2013-07-05 04:08:00,
2013-07-04 23:11:00,77.4,64.7,18.49,ESE,115,1.0,4.0,65,0.00,,SKC,0.00,VWS V14.01,2013-07-05 04:11:00,
2013-07-04 23:15:00,77.3,64.6,18.49,East,88,1.0,4.0,65,0.00,,SKC,0.00,VWS V14.01,2013-07-05 04:15:00,
2013-07-04 23:21:00,77.1,64.9,18.49,ESE,119,2.0,4.0,66,0.00,,SKC,0.00,VWS V14.01,2013-07-05 04:21:00,
2013-07-04 23:27:00,76.9,64.7,18.49,SE,138,0.0,4.0,66,0.00,,SKC,0.00,VWS V14.01,2013-07-05 04:27:00,
2013-07-04 23:30:00,78.7,64.1,18.49,SE,138,1.0,5.0,61,0.00,,SKC,0.00,VWS V14.01,2013-07-05 04:30:00,
2013-07-04 23:33:00,76.8,65.0,18.49,South,170,3.0,3.0,67,0.00,,SKC,0.00,VWS V14.01,2013-07-05 04:33:00,
2013-07-04 23:39:00,76.6,64.8,18.49,South,169,0.0,3.0,67,0.00,,SKC,0.00,VWS V14.01,2013-07-05 04:39:00,
2013-07-04 23:45:00,76.4,65.1,18.49,SSW,202,0.0,3.0,68,0.00,,SKC,0.00,VWS V14.01,2013-07-05 04:45:00,
2013-07-04 23:51:00,76.2,64.9,18.49,SSW,202,0.0,3.0,68,0.00,,SKC,0.00,VWS V14.01,2013-07-05 04:51:00,
2013-07-04 23:57:00,76.0,65.1,18.49,ESE,106,0.0,3.0,69,0.00,,SKC,0.00,VWS V14.01,2013-07-05 04:57:00,